sensor_id;sensor_type;location;lat;lon;timestamp;P1;durP1;ratioP1;P2;durP2;ratioP2
72132;SDS011;60008;50.826;6.896;2022-09-27T00:01:57;5.05;;;1.80;;
72132;SDS011;60008;50.826;6.896;2022-09-27T00:04:41;4.53;;;1.73;;
72132;SDS011;60008;50.826;6.896;2022-09-27T00:07:30;3.50;;;1.33;;
72132;SDS011;60008;50.826;6.896;2022-09-27T00:10:15;2.97;;;1.40;;
72132;SDS011;60008;50.826;6.896;2022-09-27T00:13:01;3.58;;;1.20;;
72132;SDS011;60008;50.826;6.896;2022-09-27T00:15:45;3.97;;;1.60;;
72132;SDS011;60008;50.826;6.896;2022-09-27T00:18:31;6.17;;;1.40;;
72132;SDS011;60008;50.826;6.896;2022-09-27T00:21:16;3.58;;;1.48;;
72132;SDS011;60008;50.826;6.896;2022-09-27T00:24:01;3.50;;;1.73;;
72132;SDS011;60008;50.826;6.896;2022-09-27T00:26:48;2.78;;;1.33;;
72132;SDS011;60008;50.826;6.896;2022-09-27T00:29:33;4.72;;;1.30;;
72132;SDS011;60008;50.826;6.896;2022-09-27T00:32:18;3.03;;;1.40;;
72132;SDS011;60008;50.826;6.896;2022-09-27T00:35:07;5.15;;;1.67;;
72132;SDS011;60008;50.826;6.896;2022-09-27T00:37:52;4.47;;;1.48;;
72132;SDS011;60008;50.826;6.896;2022-09-27T00:40:40;3.95;;;1.40;;
72132;SDS011;60008;50.826;6.896;2022-09-27T00:43:33;4.18;;;1.02;;
72132;SDS011;60008;50.826;6.896;2022-09-27T00:46:33;2.90;;;1.20;;
72132;SDS011;60008;50.826;6.896;2022-09-27T00:52:42;3.30;;;1.25;;
72132;SDS011;60008;50.826;6.896;2022-09-27T00:55:47;6.40;;;1.02;;
72132;SDS011;60008;50.826;6.896;2022-09-27T00:58:38;4.25;;;1.10;;
72132;SDS011;60008;50.826;6.896;2022-09-27T01:01:28;5.37;;;0.90;;
72132;SDS011;60008;50.826;6.896;2022-09-27T01:04:15;2.17;;;0.88;;
72132;SDS011;60008;50.826;6.896;2022-09-27T01:07:06;3.58;;;0.90;;
72132;SDS011;60008;50.826;6.896;2022-09-27T01:09:51;7.45;;;0.90;;
72132;SDS011;60008;50.826;6.896;2022-09-27T01:12:54;2.85;;;0.65;;
72132;SDS011;60008;50.826;6.896;2022-09-27T01:16:03;4.20;;;0.60;;
72132;SDS011;60008;50.826;6.896;2022-09-27T01:18:59;2.28;;;0.85;;
72132;SDS011;60008;50.826;6.896;2022-09-27T01:21:59;3.78;;;0.63;;
72132;SDS011;60008;50.826;6.896;2022-09-27T01:25:11;6.43;;;0.60;;
72132;SDS011;60008;50.826;6.896;2022-09-27T01:34:51;6.03;;;0.45;;
72132;SDS011;60008;50.826;6.896;2022-09-27T01:44:01;1.63;;;0.60;;
72132;SDS011;60008;50.826;6.896;2022-09-27T01:46:56;3.20;;;0.80;;
72132;SDS011;60008;50.826;6.896;2022-09-27T01:52:42;6.75;;;2.28;;
72132;SDS011;60008;50.826;6.896;2022-09-27T01:55:36;2.92;;;1.33;;
72132;SDS011;60008;50.826;6.896;2022-09-27T01:58:40;2.28;;;1.10;;
72132;SDS011;60008;50.826;6.896;2022-09-27T02:01:31;3.67;;;1.07;;
72132;SDS011;60008;50.826;6.896;2022-09-27T02:04:23;2.70;;;1.00;;
72132;SDS011;60008;50.826;6.896;2022-09-27T02:07:19;5.20;;;1.60;;
72132;SDS011;60008;50.826;6.896;2022-09-27T02:10:16;7.32;;;1.27;;
72132;SDS011;60008;50.826;6.896;2022-09-27T02:13:06;4.40;;;1.70;;
72132;SDS011;60008;50.826;6.896;2022-09-27T02:19:08;4.25;;;1.33;;
72132;SDS011;60008;50.826;6.896;2022-09-27T02:25:09;3.20;;;1.08;;
72132;SDS011;60008;50.826;6.896;2022-09-27T02:31:00;1.90;;;0.70;;
72132;SDS011;60008;50.826;6.896;2022-09-27T02:33:46;5.72;;;1.00;;
72132;SDS011;60008;50.826;6.896;2022-09-27T02:36:36;2.75;;;1.00;;
72132;SDS011;60008;50.826;6.896;2022-09-27T02:39:24;3.40;;;1.00;;
72132;SDS011;60008;50.826;6.896;2022-09-27T02:42:09;1.65;;;0.75;;
72132;SDS011;60008;50.826;6.896;2022-09-27T02:45:00;2.13;;;1.00;;
72132;SDS011;60008;50.826;6.896;2022-09-27T02:50:54;3.53;;;1.00;;
72132;SDS011;60008;50.826;6.896;2022-09-27T03:00:15;2.63;;;0.90;;
72132;SDS011;60008;50.826;6.896;2022-09-27T03:03:13;2.92;;;1.27;;
72132;SDS011;60008;50.826;6.896;2022-09-27T03:06:14;2.42;;;1.15;;
72132;SDS011;60008;50.826;6.896;2022-09-27T03:09:01;3.72;;;1.08;;
72132;SDS011;60008;50.826;6.896;2022-09-27T03:11:47;1.98;;;0.93;;
72132;SDS011;60008;50.826;6.896;2022-09-27T03:14:32;2.23;;;1.10;;
72132;SDS011;60008;50.826;6.896;2022-09-27T03:17:20;3.42;;;0.80;;
72132;SDS011;60008;50.826;6.896;2022-09-27T03:20:06;2.40;;;0.90;;
72132;SDS011;60008;50.826;6.896;2022-09-27T03:22:57;4.97;;;1.00;;
72132;SDS011;60008;50.826;6.896;2022-09-27T03:25:44;2.15;;;0.65;;
72132;SDS011;60008;50.826;6.896;2022-09-27T03:28:33;2.20;;;0.70;;
72132;SDS011;60008;50.826;6.896;2022-09-27T03:31:19;1.70;;;0.80;;
72132;SDS011;60008;50.826;6.896;2022-09-27T03:34:04;2.67;;;0.65;;
72132;SDS011;60008;50.826;6.896;2022-09-27T03:36:49;4.75;;;0.65;;
72132;SDS011;60008;50.826;6.896;2022-09-27T03:39:34;1.33;;;0.52;;
72132;SDS011;60008;50.826;6.896;2022-09-27T03:42:22;1.80;;;0.40;;
72132;SDS011;60008;50.826;6.896;2022-09-27T03:45:09;2.80;;;0.65;;
72132;SDS011;60008;50.826;6.896;2022-09-27T03:47:55;2.42;;;0.50;;
72132;SDS011;60008;50.826;6.896;2022-09-27T03:50:40;2.78;;;0.52;;
72132;SDS011;60008;50.826;6.896;2022-09-27T03:53:25;2.25;;;0.60;;
72132;SDS011;60008;50.826;6.896;2022-09-27T03:56:12;1.57;;;0.40;;
72132;SDS011;60008;50.826;6.896;2022-09-27T03:59:00;4.20;;;0.40;;
72132;SDS011;60008;50.826;6.896;2022-09-27T04:01:48;1.92;;;0.63;;
72132;SDS011;60008;50.826;6.896;2022-09-27T04:04:33;2.58;;;0.50;;
72132;SDS011;60008;50.826;6.896;2022-09-27T04:07:18;3.78;;;0.70;;
72132;SDS011;60008;50.826;6.896;2022-09-27T04:10:03;5.90;;;0.60;;
72132;SDS011;60008;50.826;6.896;2022-09-27T04:12:49;7.28;;;0.80;;
72132;SDS011;60008;50.826;6.896;2022-09-27T04:15:38;1.42;;;0.52;;
72132;SDS011;60008;50.826;6.896;2022-09-27T04:18:23;2.08;;;0.70;;
72132;SDS011;60008;50.826;6.896;2022-09-27T04:21:08;2.20;;;0.80;;
72132;SDS011;60008;50.826;6.896;2022-09-27T04:23:53;5.03;;;0.43;;
72132;SDS011;60008;50.826;6.896;2022-09-27T04:26:38;1.90;;;0.70;;
72132;SDS011;60008;50.826;6.896;2022-09-27T04:29:26;1.60;;;0.73;;
72132;SDS011;60008;50.826;6.896;2022-09-27T04:32:12;2.75;;;0.68;;
72132;SDS011;60008;50.826;6.896;2022-09-27T04:34:57;4.40;;;0.80;;
72132;SDS011;60008;50.826;6.896;2022-09-27T04:38:01;2.83;;;0.60;;
72132;SDS011;60008;50.826;6.896;2022-09-27T04:40:47;3.10;;;0.50;;
72132;SDS011;60008;50.826;6.896;2022-09-27T04:43:34;2.33;;;0.63;;
72132;SDS011;60008;50.826;6.896;2022-09-27T04:46:19;1.90;;;0.70;;
72132;SDS011;60008;50.826;6.896;2022-09-27T04:49:04;1.52;;;0.70;;
72132;SDS011;60008;50.826;6.896;2022-09-27T04:51:49;4.13;;;0.50;;
72132;SDS011;60008;50.826;6.896;2022-09-27T04:54:34;2.47;;;0.82;;
72132;SDS011;60008;50.826;6.896;2022-09-27T04:57:19;1.73;;;0.68;;
72132;SDS011;60008;50.826;6.896;2022-09-27T05:00:07;3.08;;;0.90;;
72132;SDS011;60008;50.826;6.896;2022-09-27T05:02:57;2.28;;;0.68;;
72132;SDS011;60008;50.826;6.896;2022-09-27T05:05:43;4.17;;;0.90;;
72132;SDS011;60008;50.826;6.896;2022-09-27T05:08:36;1.75;;;0.63;;
72132;SDS011;60008;50.826;6.896;2022-09-27T05:11:21;2.78;;;0.70;;
72132;SDS011;60008;50.826;6.896;2022-09-27T05:14:06;3.47;;;0.60;;
72132;SDS011;60008;50.826;6.896;2022-09-27T05:16:52;3.33;;;0.68;;
72132;SDS011;60008;50.826;6.896;2022-09-27T05:19:38;3.00;;;0.80;;
72132;SDS011;60008;50.826;6.896;2022-09-27T05:22:23;2.90;;;0.90;;
72132;SDS011;60008;50.826;6.896;2022-09-27T05:25:08;2.72;;;0.63;;
72132;SDS011;60008;50.826;6.896;2022-09-27T05:27:56;3.47;;;0.80;;
72132;SDS011;60008;50.826;6.896;2022-09-27T05:30:43;2.72;;;0.70;;
72132;SDS011;60008;50.826;6.896;2022-09-27T05:33:33;3.77;;;0.90;;
72132;SDS011;60008;50.826;6.896;2022-09-27T05:36:20;1.60;;;0.60;;
72132;SDS011;60008;50.826;6.896;2022-09-27T05:39:05;3.50;;;0.90;;
72132;SDS011;60008;50.826;6.896;2022-09-27T05:41:58;3.25;;;0.88;;
72132;SDS011;60008;50.826;6.896;2022-09-27T05:44:43;4.18;;;0.88;;
72132;SDS011;60008;50.826;6.896;2022-09-27T05:47:31;3.60;;;1.00;;
72132;SDS011;60008;50.826;6.896;2022-09-27T05:50:16;1.60;;;0.60;;
72132;SDS011;60008;50.826;6.896;2022-09-27T05:53:01;6.13;;;1.00;;
72132;SDS011;60008;50.826;6.896;2022-09-27T05:55:50;2.80;;;0.77;;
72132;SDS011;60008;50.826;6.896;2022-09-27T05:58:35;1.80;;;0.77;;
72132;SDS011;60008;50.826;6.896;2022-09-27T06:01:19;3.73;;;0.70;;
72132;SDS011;60008;50.826;6.896;2022-09-27T06:04:05;1.85;;;0.80;;
72132;SDS011;60008;50.826;6.896;2022-09-27T06:06:52;3.08;;;0.95;;
72132;SDS011;60008;50.826;6.896;2022-09-27T06:09:42;2.97;;;0.88;;
72132;SDS011;60008;50.826;6.896;2022-09-27T06:12:34;4.35;;;0.90;;
72132;SDS011;60008;50.826;6.896;2022-09-27T06:15:21;1.23;;;0.53;;
72132;SDS011;60008;50.826;6.896;2022-09-27T06:18:12;3.47;;;0.65;;
72132;SDS011;60008;50.826;6.896;2022-09-27T06:21:03;3.28;;;1.00;;
72132;SDS011;60008;50.826;6.896;2022-09-27T06:23:49;5.60;;;1.10;;
72132;SDS011;60008;50.826;6.896;2022-09-27T06:26:38;4.22;;;1.00;;
72132;SDS011;60008;50.826;6.896;2022-09-27T06:29:23;2.10;;;0.90;;
72132;SDS011;60008;50.826;6.896;2022-09-27T06:32:07;3.65;;;0.90;;
72132;SDS011;60008;50.826;6.896;2022-09-27T06:34:52;1.30;;;0.70;;
72132;SDS011;60008;50.826;6.896;2022-09-27T06:37:40;1.65;;;0.80;;
72132;SDS011;60008;50.826;6.896;2022-09-27T06:40:27;1.85;;;0.93;;
72132;SDS011;60008;50.826;6.896;2022-09-27T06:43:13;1.30;;;0.50;;
72132;SDS011;60008;50.826;6.896;2022-09-27T06:46:01;1.55;;;0.70;;
72132;SDS011;60008;50.826;6.896;2022-09-27T06:48:52;2.13;;;0.95;;
72132;SDS011;60008;50.826;6.896;2022-09-27T06:51:37;4.00;;;1.00;;
72132;SDS011;60008;50.826;6.896;2022-09-27T06:54:24;3.80;;;1.00;;
72132;SDS011;60008;50.826;6.896;2022-09-27T06:57:09;2.37;;;0.60;;
72132;SDS011;60008;50.826;6.896;2022-09-27T07:00:14;1.42;;;0.70;;
72132;SDS011;60008;50.826;6.896;2022-09-27T07:03:11;3.17;;;1.10;;
72132;SDS011;60008;50.826;6.896;2022-09-27T07:05:58;4.72;;;0.95;;
72132;SDS011;60008;50.826;6.896;2022-09-27T07:08:44;2.90;;;1.40;;
72132;SDS011;60008;50.826;6.896;2022-09-27T07:11:36;3.97;;;0.60;;
72132;SDS011;60008;50.826;6.896;2022-09-27T07:14:24;2.05;;;0.50;;
72132;SDS011;60008;50.826;6.896;2022-09-27T07:17:11;2.50;;;0.45;;
72132;SDS011;60008;50.826;6.896;2022-09-27T07:19:57;1.50;;;0.60;;
72132;SDS011;60008;50.826;6.896;2022-09-27T07:22:42;1.88;;;0.40;;
72132;SDS011;60008;50.826;6.896;2022-09-27T07:25:29;1.37;;;0.60;;
72132;SDS011;60008;50.826;6.896;2022-09-27T07:28:15;1.95;;;0.50;;
72132;SDS011;60008;50.826;6.896;2022-09-27T07:31:08;2.03;;;0.70;;
72132;SDS011;60008;50.826;6.896;2022-09-27T07:33:53;3.22;;;0.50;;
72132;SDS011;60008;50.826;6.896;2022-09-27T07:36:38;2.53;;;0.52;;
72132;SDS011;60008;50.826;6.896;2022-09-27T07:39:25;2.23;;;0.50;;
72132;SDS011;60008;50.826;6.896;2022-09-27T07:42:10;2.10;;;0.70;;
72132;SDS011;60008;50.826;6.896;2022-09-27T07:44:55;1.90;;;0.60;;
72132;SDS011;60008;50.826;6.896;2022-09-27T07:47:40;2.13;;;0.70;;
72132;SDS011;60008;50.826;6.896;2022-09-27T07:50:25;1.00;;;0.30;;
72132;SDS011;60008;50.826;6.896;2022-09-27T07:53:13;1.47;;;0.50;;
72132;SDS011;60008;50.826;6.896;2022-09-27T07:56:02;1.95;;;0.60;;
72132;SDS011;60008;50.826;6.896;2022-09-27T07:58:48;2.05;;;0.60;;
72132;SDS011;60008;50.826;6.896;2022-09-27T08:01:33;1.10;;;0.50;;
72132;SDS011;60008;50.826;6.896;2022-09-27T08:04:18;3.28;;;0.90;;
72132;SDS011;60008;50.826;6.896;2022-09-27T08:07:03;2.93;;;0.80;;
72132;SDS011;60008;50.826;6.896;2022-09-27T08:09:47;2.38;;;0.50;;
72132;SDS011;60008;50.826;6.896;2022-09-27T08:12:33;2.65;;;0.55;;
72132;SDS011;60008;50.826;6.896;2022-09-27T08:15:18;2.08;;;0.60;;
72132;SDS011;60008;50.826;6.896;2022-09-27T08:18:03;8.02;;;0.70;;
72132;SDS011;60008;50.826;6.896;2022-09-27T08:20:48;3.07;;;0.50;;
72132;SDS011;60008;50.826;6.896;2022-09-27T08:23:33;1.23;;;0.35;;
72132;SDS011;60008;50.826;6.896;2022-09-27T08:26:20;1.60;;;0.60;;
72132;SDS011;60008;50.826;6.896;2022-09-27T08:29:05;3.20;;;0.65;;
72132;SDS011;60008;50.826;6.896;2022-09-27T08:31:51;1.52;;;0.80;;
72132;SDS011;60008;50.826;6.896;2022-09-27T08:34:37;1.03;;;0.60;;
72132;SDS011;60008;50.826;6.896;2022-09-27T08:37:22;2.03;;;0.73;;
72132;SDS011;60008;50.826;6.896;2022-09-27T08:40:08;3.53;;;0.80;;
72132;SDS011;60008;50.826;6.896;2022-09-27T08:42:59;1.23;;;0.55;;
72132;SDS011;60008;50.826;6.896;2022-09-27T08:48:56;1.77;;;0.57;;
72132;SDS011;60008;50.826;6.896;2022-09-27T08:51:49;2.53;;;0.73;;
72132;SDS011;60008;50.826;6.896;2022-09-27T08:54:37;8.15;;;0.90;;
72132;SDS011;60008;50.826;6.896;2022-09-27T08:57:23;2.60;;;1.00;;
72132;SDS011;60008;50.826;6.896;2022-09-27T09:00:10;2.55;;;0.90;;
72132;SDS011;60008;50.826;6.896;2022-09-27T09:02:56;1.90;;;0.70;;
72132;SDS011;60008;50.826;6.896;2022-09-27T09:05:41;3.22;;;0.90;;
72132;SDS011;60008;50.826;6.896;2022-09-27T09:11:47;0.95;;;0.47;;
72132;SDS011;60008;50.826;6.896;2022-09-27T09:18:51;0.93;;;0.43;;
72132;SDS011;60008;50.826;6.896;2022-09-27T09:28:27;1.30;;;0.70;;
72132;SDS011;60008;50.826;6.896;2022-09-27T09:34:15;2.07;;;1.00;;
72132;SDS011;60008;50.826;6.896;2022-09-27T09:40:15;1.40;;;0.60;;
72132;SDS011;60008;50.826;6.896;2022-09-27T09:43:14;4.15;;;0.80;;
72132;SDS011;60008;50.826;6.896;2022-09-27T09:46:07;2.60;;;0.77;;
72132;SDS011;60008;50.826;6.896;2022-09-27T09:49:15;4.53;;;0.97;;
72132;SDS011;60008;50.826;6.896;2022-09-27T09:52:17;3.28;;;0.88;;
72132;SDS011;60008;50.826;6.896;2022-09-27T09:55:06;1.50;;;0.70;;
72132;SDS011;60008;50.826;6.896;2022-09-27T09:58:11;2.50;;;0.98;;
72132;SDS011;60008;50.826;6.896;2022-09-27T10:01:27;2.05;;;1.00;;
72132;SDS011;60008;50.826;6.896;2022-09-27T10:04:18;9.37;;;1.00;;
72132;SDS011;60008;50.826;6.896;2022-09-27T10:07:08;4.47;;;0.55;;
72132;SDS011;60008;50.826;6.896;2022-09-27T10:09:54;2.30;;;0.80;;
72132;SDS011;60008;50.826;6.896;2022-09-27T10:12:43;1.95;;;0.68;;
72132;SDS011;60008;50.826;6.896;2022-09-27T10:15:29;2.22;;;0.90;;
72132;SDS011;60008;50.826;6.896;2022-09-27T10:18:16;1.93;;;0.70;;
72132;SDS011;60008;50.826;6.896;2022-09-27T10:21:05;1.73;;;0.90;;
72132;SDS011;60008;50.826;6.896;2022-09-27T10:26:48;1.70;;;0.90;;
72132;SDS011;60008;50.826;6.896;2022-09-27T10:29:35;1.90;;;0.95;;
72132;SDS011;60008;50.826;6.896;2022-09-27T10:32:32;1.53;;;0.70;;
72132;SDS011;60008;50.826;6.896;2022-09-27T10:35:34;2.80;;;0.93;;
72132;SDS011;60008;50.826;6.896;2022-09-27T10:38:30;1.88;;;0.80;;
72132;SDS011;60008;50.826;6.896;2022-09-27T10:47:05;1.70;;;1.00;;
72132;SDS011;60008;50.826;6.896;2022-09-27T10:50:00;1.42;;;0.73;;
72132;SDS011;60008;50.826;6.896;2022-09-27T10:52:48;3.33;;;1.00;;
72132;SDS011;60008;50.826;6.896;2022-09-27T10:55:47;2.00;;;1.00;;
72132;SDS011;60008;50.826;6.896;2022-09-27T10:58:35;4.90;;;1.08;;
72132;SDS011;60008;50.826;6.896;2022-09-27T11:01:21;1.40;;;0.73;;
72132;SDS011;60008;50.826;6.896;2022-09-27T11:04:14;3.22;;;1.17;;
72132;SDS011;60008;50.826;6.896;2022-09-27T11:07:12;2.22;;;1.13;;
72132;SDS011;60008;50.826;6.896;2022-09-27T11:10:06;3.53;;;1.17;;
72132;SDS011;60008;50.826;6.896;2022-09-27T11:13:08;2.08;;;1.08;;
72132;SDS011;60008;50.826;6.896;2022-09-27T11:31:29;2.03;;;1.10;;
72132;SDS011;60008;50.826;6.896;2022-09-27T11:37:44;2.22;;;1.20;;
72132;SDS011;60008;50.826;6.896;2022-09-27T11:46:46;3.17;;;1.20;;
72132;SDS011;60008;50.826;6.896;2022-09-27T11:49:45;3.03;;;0.90;;
72132;SDS011;60008;50.826;6.896;2022-09-27T12:08:50;2.60;;;1.20;;
72132;SDS011;60008;50.826;6.896;2022-09-27T12:11:48;3.15;;;1.20;;
72132;SDS011;60008;50.826;6.896;2022-09-27T12:14:59;2.88;;;1.23;;
72132;SDS011;60008;50.826;6.896;2022-09-27T12:17:53;2.63;;;1.27;;
72132;SDS011;60008;50.826;6.896;2022-09-27T12:20:54;1.98;;;1.08;;
72132;SDS011;60008;50.826;6.896;2022-09-27T12:26:41;2.33;;;0.77;;
72132;SDS011;60008;50.826;6.896;2022-09-27T12:29:30;5.25;;;1.15;;
72132;SDS011;60008;50.826;6.896;2022-09-27T12:32:23;2.70;;;1.27;;
72132;SDS011;60008;50.826;6.896;2022-09-27T12:35:34;3.97;;;1.45;;
72132;SDS011;60008;50.826;6.896;2022-09-27T12:38:38;4.13;;;1.20;;
72132;SDS011;60008;50.826;6.896;2022-09-27T12:41:27;3.33;;;1.48;;
72132;SDS011;60008;50.826;6.896;2022-09-27T12:44:24;4.85;;;1.30;;
72132;SDS011;60008;50.826;6.896;2022-09-27T12:50:42;5.35;;;1.38;;
72132;SDS011;60008;50.826;6.896;2022-09-27T12:57:01;1.60;;;0.65;;
72132;SDS011;60008;50.826;6.896;2022-09-27T13:00:17;2.45;;;1.08;;
72132;SDS011;60008;50.826;6.896;2022-09-27T13:09:48;2.55;;;0.80;;
72132;SDS011;60008;50.826;6.896;2022-09-27T13:12:46;2.80;;;0.70;;
72132;SDS011;60008;50.826;6.896;2022-09-27T13:15:34;2.35;;;0.60;;
72132;SDS011;60008;50.826;6.896;2022-09-27T13:24:38;2.95;;;0.70;;
72132;SDS011;60008;50.826;6.896;2022-09-27T13:33:20;3.13;;;0.80;;
72132;SDS011;60008;50.826;6.896;2022-09-27T13:36:31;3.97;;;0.68;;
72132;SDS011;60008;50.826;6.896;2022-09-27T13:39:19;3.15;;;0.55;;
72132;SDS011;60008;50.826;6.896;2022-09-27T13:42:18;0.98;;;0.40;;
72132;SDS011;60008;50.826;6.896;2022-09-27T13:45:26;0.70;;;0.30;;
72132;SDS011;60008;50.826;6.896;2022-09-27T13:48:18;2.93;;;0.30;;
72132;SDS011;60008;50.826;6.896;2022-09-27T13:54:37;7.53;;;0.68;;
72132;SDS011;60008;50.826;6.896;2022-09-27T13:57:41;1.67;;;0.30;;
72132;SDS011;60008;50.826;6.896;2022-09-27T14:00:31;1.45;;;0.30;;
72132;SDS011;60008;50.826;6.896;2022-09-27T14:03:27;2.00;;;0.40;;
72132;SDS011;60008;50.826;6.896;2022-09-27T14:06:15;3.10;;;0.40;;
72132;SDS011;60008;50.826;6.896;2022-09-27T14:09:05;1.40;;;0.40;;
72132;SDS011;60008;50.826;6.896;2022-09-27T14:12:00;3.40;;;0.52;;
72132;SDS011;60008;50.826;6.896;2022-09-27T14:14:51;1.20;;;0.38;;
72132;SDS011;60008;50.826;6.896;2022-09-27T14:17:41;1.20;;;0.40;;
72132;SDS011;60008;50.826;6.896;2022-09-27T14:20:35;1.88;;;0.50;;
72132;SDS011;60008;50.826;6.896;2022-09-27T14:23:30;2.05;;;0.60;;
72132;SDS011;60008;50.826;6.896;2022-09-27T14:26:25;4.03;;;0.55;;
72132;SDS011;60008;50.826;6.896;2022-09-27T14:29:18;3.22;;;0.70;;
72132;SDS011;60008;50.826;6.896;2022-09-27T14:32:12;1.23;;;0.50;;
72132;SDS011;60008;50.826;6.896;2022-09-27T14:35:25;4.70;;;0.63;;
72132;SDS011;60008;50.826;6.896;2022-09-27T14:38:30;1.58;;;0.50;;
72132;SDS011;60008;50.826;6.896;2022-09-27T14:41:24;2.08;;;0.40;;
72132;SDS011;60008;50.826;6.896;2022-09-27T14:44:16;3.00;;;0.45;;
72132;SDS011;60008;50.826;6.896;2022-09-27T14:47:15;4.40;;;0.60;;
72132;SDS011;60008;50.826;6.896;2022-09-27T14:50:12;1.73;;;0.40;;
72132;SDS011;60008;50.826;6.896;2022-09-27T14:53:02;3.05;;;0.50;;
72132;SDS011;60008;50.826;6.896;2022-09-27T14:56:14;2.17;;;0.40;;
72132;SDS011;60008;50.826;6.896;2022-09-27T14:59:08;2.45;;;0.70;;
72132;SDS011;60008;50.826;6.896;2022-09-27T15:02:01;2.53;;;0.50;;
72132;SDS011;60008;50.826;6.896;2022-09-27T15:04:53;2.17;;;0.50;;
72132;SDS011;60008;50.826;6.896;2022-09-27T15:07:44;2.45;;;0.60;;
72132;SDS011;60008;50.826;6.896;2022-09-27T15:10:31;4.10;;;0.80;;
72132;SDS011;60008;50.826;6.896;2022-09-27T15:13:21;2.10;;;0.30;;
72132;SDS011;60008;50.826;6.896;2022-09-27T15:16:09;2.80;;;0.40;;
72132;SDS011;60008;50.826;6.896;2022-09-27T15:19:13;1.52;;;0.32;;
72132;SDS011;60008;50.826;6.896;2022-09-27T15:22:20;1.65;;;0.30;;
72132;SDS011;60008;50.826;6.896;2022-09-27T15:25:14;1.33;;;0.30;;
72132;SDS011;60008;50.826;6.896;2022-09-27T15:28:20;1.15;;;0.30;;
72132;SDS011;60008;50.826;6.896;2022-09-27T15:31:05;0.77;;;0.30;;
72132;SDS011;60008;50.826;6.896;2022-09-27T15:33:56;2.65;;;0.45;;
72132;SDS011;60008;50.826;6.896;2022-09-27T15:39:36;1.55;;;0.60;;
72132;SDS011;60008;50.826;6.896;2022-09-27T15:42:22;2.55;;;0.80;;
72132;SDS011;60008;50.826;6.896;2022-09-27T15:45:25;2.20;;;0.70;;
72132;SDS011;60008;50.826;6.896;2022-09-27T15:48:16;1.67;;;0.57;;
72132;SDS011;60008;50.826;6.896;2022-09-27T15:51:36;2.53;;;0.90;;
72132;SDS011;60008;50.826;6.896;2022-09-27T15:54:28;1.52;;;0.70;;
72132;SDS011;60008;50.826;6.896;2022-09-27T15:57:15;4.38;;;1.00;;
72132;SDS011;60008;50.826;6.896;2022-09-27T16:00:00;2.53;;;0.90;;
72132;SDS011;60008;50.826;6.896;2022-09-27T16:02:46;2.42;;;0.80;;
72132;SDS011;60008;50.826;6.896;2022-09-27T16:05:31;2.10;;;0.80;;
72132;SDS011;60008;50.826;6.896;2022-09-27T16:08:16;1.55;;;0.57;;
72132;SDS011;60008;50.826;6.896;2022-09-27T16:11:01;2.38;;;0.85;;
72132;SDS011;60008;50.826;6.896;2022-09-27T16:13:51;2.60;;;0.93;;
72132;SDS011;60008;50.826;6.896;2022-09-27T16:16:39;3.40;;;0.98;;
72132;SDS011;60008;50.826;6.896;2022-09-27T16:19:24;1.63;;;0.73;;
72132;SDS011;60008;50.826;6.896;2022-09-27T16:22:09;2.85;;;0.90;;
72132;SDS011;60008;50.826;6.896;2022-09-27T16:24:57;3.05;;;1.10;;
72132;SDS011;60008;50.826;6.896;2022-09-27T16:27:41;1.83;;;1.00;;
72132;SDS011;60008;50.826;6.896;2022-09-27T16:30:26;4.95;;;1.20;;
72132;SDS011;60008;50.826;6.896;2022-09-27T16:33:16;3.38;;;1.17;;
72132;SDS011;60008;50.826;6.896;2022-09-27T16:36:04;3.58;;;1.10;;
72132;SDS011;60008;50.826;6.896;2022-09-27T16:38:56;4.63;;;1.55;;
72132;SDS011;60008;50.826;6.896;2022-09-27T16:41:41;2.63;;;1.20;;
72132;SDS011;60008;50.826;6.896;2022-09-27T16:44:27;6.15;;;1.38;;
72132;SDS011;60008;50.826;6.896;2022-09-27T16:47:13;3.80;;;1.50;;
72132;SDS011;60008;50.826;6.896;2022-09-27T16:50:03;3.28;;;1.50;;
72132;SDS011;60008;50.826;6.896;2022-09-27T16:53:07;2.88;;;1.38;;
72132;SDS011;60008;50.826;6.896;2022-09-27T16:55:52;5.37;;;2.03;;
72132;SDS011;60008;50.826;6.896;2022-09-27T16:58:43;4.63;;;1.77;;
72132;SDS011;60008;50.826;6.896;2022-09-27T17:01:31;3.65;;;1.80;;
72132;SDS011;60008;50.826;6.896;2022-09-27T17:04:18;4.43;;;1.80;;
72132;SDS011;60008;50.826;6.896;2022-09-27T17:07:04;8.93;;;2.97;;
72132;SDS011;60008;50.826;6.896;2022-09-27T17:09:49;8.97;;;2.63;;
72132;SDS011;60008;50.826;6.896;2022-09-27T17:12:36;7.55;;;2.38;;
72132;SDS011;60008;50.826;6.896;2022-09-27T17:15:21;6.25;;;2.40;;
72132;SDS011;60008;50.826;6.896;2022-09-27T17:18:06;4.60;;;2.17;;
72132;SDS011;60008;50.826;6.896;2022-09-27T17:20:50;4.97;;;1.80;;
72132;SDS011;60008;50.826;6.896;2022-09-27T17:23:36;6.00;;;1.80;;
72132;SDS011;60008;50.826;6.896;2022-09-27T17:26:22;4.50;;;1.60;;
72132;SDS011;60008;50.826;6.896;2022-09-27T17:29:13;6.95;;;2.42;;
72132;SDS011;60008;50.826;6.896;2022-09-27T17:31:59;6.45;;;2.08;;
72132;SDS011;60008;50.826;6.896;2022-09-27T17:34:44;5.88;;;2.50;;
72132;SDS011;60008;50.826;6.896;2022-09-27T17:37:29;5.37;;;1.87;;
72132;SDS011;60008;50.826;6.896;2022-09-27T17:40:14;6.95;;;1.67;;
72132;SDS011;60008;50.826;6.896;2022-09-27T17:43:03;4.78;;;1.70;;
72132;SDS011;60008;50.826;6.896;2022-09-27T17:45:50;6.53;;;1.70;;
72132;SDS011;60008;50.826;6.896;2022-09-27T17:48:35;3.63;;;1.80;;
72132;SDS011;60008;50.826;6.896;2022-09-27T17:51:40;4.03;;;1.57;;
72132;SDS011;60008;50.826;6.896;2022-09-27T17:54:26;5.38;;;1.80;;
72132;SDS011;60008;50.826;6.896;2022-09-27T17:57:11;5.00;;;2.00;;
72132;SDS011;60008;50.826;6.896;2022-09-27T18:00:00;6.35;;;2.40;;
72132;SDS011;60008;50.826;6.896;2022-09-27T18:02:48;6.40;;;1.90;;
72132;SDS011;60008;50.826;6.896;2022-09-27T18:05:32;3.97;;;1.77;;
72132;SDS011;60008;50.826;6.896;2022-09-27T18:08:19;4.35;;;1.60;;
72132;SDS011;60008;50.826;6.896;2022-09-27T18:11:05;7.30;;;4.10;;
72132;SDS011;60008;50.826;6.896;2022-09-27T18:13:55;6.15;;;2.88;;
72132;SDS011;60008;50.826;6.896;2022-09-27T18:16:45;7.32;;;3.90;;
72132;SDS011;60008;50.826;6.896;2022-09-27T18:19:33;10.23;;;6.30;;
72132;SDS011;60008;50.826;6.896;2022-09-27T18:22:19;13.55;;;7.65;;
72132;SDS011;60008;50.826;6.896;2022-09-27T18:25:04;11.98;;;7.00;;
72132;SDS011;60008;50.826;6.896;2022-09-27T18:27:50;10.85;;;5.05;;
72132;SDS011;60008;50.826;6.896;2022-09-27T18:30:36;9.23;;;4.35;;
72132;SDS011;60008;50.826;6.896;2022-09-27T18:33:21;9.90;;;4.10;;
72132;SDS011;60008;50.826;6.896;2022-09-27T18:36:08;8.70;;;4.10;;
72132;SDS011;60008;50.826;6.896;2022-09-27T18:39:03;6.45;;;3.88;;
72132;SDS011;60008;50.826;6.896;2022-09-27T18:41:49;8.65;;;3.88;;
72132;SDS011;60008;50.826;6.896;2022-09-27T18:44:37;14.27;;;3.83;;
72132;SDS011;60008;50.826;6.896;2022-09-27T18:47:23;8.40;;;3.80;;
72132;SDS011;60008;50.826;6.896;2022-09-27T18:50:10;6.60;;;3.58;;
72132;SDS011;60008;50.826;6.896;2022-09-27T18:52:56;7.05;;;3.22;;
72132;SDS011;60008;50.826;6.896;2022-09-27T18:55:41;7.03;;;2.90;;
72132;SDS011;60008;50.826;6.896;2022-09-27T18:58:25;8.40;;;4.60;;
72132;SDS011;60008;50.826;6.896;2022-09-27T19:01:11;7.57;;;3.63;;
72132;SDS011;60008;50.826;6.896;2022-09-27T19:03:57;7.57;;;3.65;;
72132;SDS011;60008;50.826;6.896;2022-09-27T19:06:46;6.85;;;3.50;;
72132;SDS011;60008;50.826;6.896;2022-09-27T19:09:31;6.43;;;3.17;;
72132;SDS011;60008;50.826;6.896;2022-09-27T19:12:16;6.53;;;3.55;;
72132;SDS011;60008;50.826;6.896;2022-09-27T19:15:01;4.83;;;2.67;;
72132;SDS011;60008;50.826;6.896;2022-09-27T19:17:48;5.80;;;2.95;;
72132;SDS011;60008;50.826;6.896;2022-09-27T19:20:34;8.07;;;2.60;;
72132;SDS011;60008;50.826;6.896;2022-09-27T19:23:19;8.02;;;2.90;;
72132;SDS011;60008;50.826;6.896;2022-09-27T19:26:10;5.90;;;2.70;;
72132;SDS011;60008;50.826;6.896;2022-09-27T19:28:57;8.57;;;3.17;;
72132;SDS011;60008;50.826;6.896;2022-09-27T19:31:42;5.90;;;2.80;;